San Diego International Airport

Airport
ICAO code: 
KSAN
IATA Code: 
SAN
Summary
ICAO Region: 
NAM
Territory: 
Location: 
San Diego, California
Serving: 
San Diego County
Elevation: 
17 ft
Coordinates: 
Aerial View: 
32° 44' 0.255" N, 117° 11' 25.506" W
Airport RE: 
Engineered Materials Arresting System
Airport WX: 
Fog
Metar
Observation
KSAN 040651Z 33004KT 10SM OVC019 15/11 A3015 RMK AO2 SLP210 T01500106
Station
San Diego, San Diego International-Lindbergh Field
Date/Time
2021-12-04 06:51:00
Wind direction
330°
Wind speed
04 kts
Lowest cloud amount
overcast
Temperature
15°C
Dew point
10.6°C
Humidity
74%
Weather condition
n/a

Description

International airport serving San Diego, California, USA.

Climatology

San Diego enjoys mild, sunny weather throughout the year. Since the San Diego area straddles areas of Mediterranean climate (Csa) to the north, and Semi-arid climate (BSh) to the south and east, the climate is often referred to as "Mediterranean" or "arid-mediterranean". Fog is common in May and June.

Runways

Designator Length Width Surface Rops
9/27 2865 61 PEM Yes/Yes
Airport map: 
Aerial View: 

SKYbrary Partners:

Safety knowledge contributed by: